sensor_id;sensor_type;location;lat;lon;timestamp;temperature;humidity
33139;DHT22;19501;50.948;5.316;2022-07-10T00:01:51;15.80;99.90
33139;DHT22;19501;50.948;5.316;2022-07-10T00:04:17;15.80;99.90
33139;DHT22;19501;50.948;5.316;2022-07-10T00:06:44;15.90;99.90
33139;DHT22;19501;50.948;5.316;2022-07-10T00:09:12;16.00;99.90
33139;DHT22;19501;50.948;5.316;2022-07-10T00:11:39;15.90;99.90
33139;DHT22;19501;50.948;5.316;2022-07-10T00:14:05;15.70;99.90
33139;DHT22;19501;50.948;5.316;2022-07-10T00:16:31;15.50;99.90
33139;DHT22;19501;50.948;5.316;2022-07-10T00:18:57;15.50;99.90
33139;DHT22;19501;50.948;5.316;2022-07-10T00:21:22;15.60;99.90
33139;DHT22;19501;50.948;5.316;2022-07-10T00:23:48;15.80;99.90
33139;DHT22;19501;50.948;5.316;2022-07-10T00:26:14;15.80;99.90
33139;DHT22;19501;50.948;5.316;2022-07-10T00:28:40;15.80;99.90
33139;DHT22;19501;50.948;5.316;2022-07-10T00:31:08;15.90;99.90
33139;DHT22;19501;50.948;5.316;2022-07-10T00:33:36;15.90;99.90
33139;DHT22;19501;50.948;5.316;2022-07-10T00:36:05;15.90;99.90
33139;DHT22;19501;50.948;5.316;2022-07-10T00:38:34;15.70;99.90
33139;DHT22;19501;50.948;5.316;2022-07-10T00:41:00;15.70;99.90
33139;DHT22;19501;50.948;5.316;2022-07-10T00:43:26;15.70;99.90
33139;DHT22;19501;50.948;5.316;2022-07-10T00:45:52;15.80;99.90
33139;DHT22;19501;50.948;5.316;2022-07-10T00:48:18;15.70;99.90
33139;DHT22;19501;50.948;5.316;2022-07-10T00:50:45;15.70;99.90
33139;DHT22;19501;50.948;5.316;2022-07-10T00:53:12;15.80;99.90
33139;DHT22;19501;50.948;5.316;2022-07-10T00:55:39;15.80;99.90
33139;DHT22;19501;50.948;5.316;2022-07-10T00:58:08;15.80;99.90
33139;DHT22;19501;50.948;5.316;2022-07-10T01:00:36;15.80;99.90
33139;DHT22;19501;50.948;5.316;2022-07-10T01:03:05;15.70;99.90
33139;DHT22;19501;50.948;5.316;2022-07-10T01:05:31;15.70;99.90
33139;DHT22;19501;50.948;5.316;2022-07-10T01:07:57;15.50;99.90
33139;DHT22;19501;50.948;5.316;2022-07-10T01:10:23;15.30;99.90
33139;DHT22;19501;50.948;5.316;2022-07-10T01:12:52;15.40;99.90
33139;DHT22;19501;50.948;5.316;2022-07-10T01:15:21;15.40;99.90
33139;DHT22;19501;50.948;5.316;2022-07-10T01:17:47;15.20;99.90
33139;DHT22;19501;50.948;5.316;2022-07-10T01:20:15;15.20;99.90
33139;DHT22;19501;50.948;5.316;2022-07-10T01:22:40;15.20;99.90
33139;DHT22;19501;50.948;5.316;2022-07-10T01:25:07;15.30;99.90
33139;DHT22;19501;50.948;5.316;2022-07-10T01:27:33;15.30;99.90
33139;DHT22;19501;50.948;5.316;2022-07-10T01:29:59;15.20;99.90
33139;DHT22;19501;50.948;5.316;2022-07-10T01:32:36;15.30;99.90
33139;DHT22;19501;50.948;5.316;2022-07-10T01:35:05;15.20;99.90
33139;DHT22;19501;50.948;5.316;2022-07-10T01:37:30;15.20;99.90
33139;DHT22;19501;50.948;5.316;2022-07-10T01:39:56;15.10;99.90
33139;DHT22;19501;50.948;5.316;2022-07-10T01:42:22;15.00;99.90
33139;DHT22;19501;50.948;5.316;2022-07-10T01:44:48;14.80;99.90
33139;DHT22;19501;50.948;5.316;2022-07-10T01:47:13;14.90;99.90
33139;DHT22;19501;50.948;5.316;2022-07-10T01:49:42;14.80;99.90
33139;DHT22;19501;50.948;5.316;2022-07-10T01:52:10;14.40;99.90
33139;DHT22;19501;50.948;5.316;2022-07-10T01:54:37;14.00;99.90
33139;DHT22;19501;50.948;5.316;2022-07-10T01:57:03;13.70;99.90
33139;DHT22;19501;50.948;5.316;2022-07-10T01:59:31;13.60;99.90
33139;DHT22;19501;50.948;5.316;2022-07-10T02:01:57;13.80;99.90
33139;DHT22;19501;50.948;5.316;2022-07-10T02:04:23;13.80;99.90
33139;DHT22;19501;50.948;5.316;2022-07-10T02:07:14;13.70;99.90
33139;DHT22;19501;50.948;5.316;2022-07-10T02:09:40;13.40;99.90
33139;DHT22;19501;50.948;5.316;2022-07-10T02:12:11;13.30;99.90
33139;DHT22;19501;50.948;5.316;2022-07-10T02:14:38;13.40;99.90
33139;DHT22;19501;50.948;5.316;2022-07-10T02:17:04;13.70;99.90
33139;DHT22;19501;50.948;5.316;2022-07-10T02:19:33;13.90;99.90
33139;DHT22;19501;50.948;5.316;2022-07-10T02:21:59;13.90;99.90
33139;DHT22;19501;50.948;5.316;2022-07-10T02:24:25;14.00;99.90
33139;DHT22;19501;50.948;5.316;2022-07-10T02:26:50;14.10;99.90
33139;DHT22;19501;50.948;5.316;2022-07-10T02:29:20;13.70;99.90
33139;DHT22;19501;50.948;5.316;2022-07-10T02:31:46;13.40;99.90
33139;DHT22;19501;50.948;5.316;2022-07-10T02:34:12;13.20;99.90
33139;DHT22;19501;50.948;5.316;2022-07-10T02:36:40;13.10;99.90
33139;DHT22;19501;50.948;5.316;2022-07-10T02:39:07;13.20;99.90
33139;DHT22;19501;50.948;5.316;2022-07-10T02:41:33;13.30;99.90
33139;DHT22;19501;50.948;5.316;2022-07-10T02:44:19;13.10;99.90
33139;DHT22;19501;50.948;5.316;2022-07-10T02:46:45;13.30;99.90
33139;DHT22;19501;50.948;5.316;2022-07-10T02:49:13;13.40;99.90
33139;DHT22;19501;50.948;5.316;2022-07-10T02:51:38;13.50;99.90
33139;DHT22;19501;50.948;5.316;2022-07-10T02:54:04;13.40;99.90
33139;DHT22;19501;50.948;5.316;2022-07-10T02:56:29;13.40;99.90
33139;DHT22;19501;50.948;5.316;2022-07-10T02:58:55;13.00;99.90
33139;DHT22;19501;50.948;5.316;2022-07-10T03:01:21;12.70;99.90
33139;DHT22;19501;50.948;5.316;2022-07-10T03:03:47;12.80;99.90
33139;DHT22;19501;50.948;5.316;2022-07-10T03:06:15;12.90;99.90
33139;DHT22;19501;50.948;5.316;2022-07-10T03:08:40;12.90;99.90
33139;DHT22;19501;50.948;5.316;2022-07-10T03:11:07;13.10;99.90
33139;DHT22;19501;50.948;5.316;2022-07-10T03:13:32;13.10;99.90
33139;DHT22;19501;50.948;5.316;2022-07-10T03:15:58;13.00;99.90
33139;DHT22;19501;50.948;5.316;2022-07-10T03:18:24;13.00;99.90
33139;DHT22;19501;50.948;5.316;2022-07-10T03:20:49;12.70;99.90
33139;DHT22;19501;50.948;5.316;2022-07-10T03:23:15;12.70;99.90
33139;DHT22;19501;50.948;5.316;2022-07-10T03:25:41;12.70;99.90
33139;DHT22;19501;50.948;5.316;2022-07-10T03:28:07;12.70;99.90
33139;DHT22;19501;50.948;5.316;2022-07-10T03:30:32;12.80;99.90
33139;DHT22;19501;50.948;5.316;2022-07-10T03:33:01;12.80;99.90
33139;DHT22;19501;50.948;5.316;2022-07-10T03:35:30;12.80;99.90
33139;DHT22;19501;50.948;5.316;2022-07-10T03:37:57;12.90;99.90
33139;DHT22;19501;50.948;5.316;2022-07-10T03:40:22;13.10;99.90
33139;DHT22;19501;50.948;5.316;2022-07-10T03:42:49;13.30;99.90
33139;DHT22;19501;50.948;5.316;2022-07-10T03:45:15;13.40;99.90
33139;DHT22;19501;50.948;5.316;2022-07-10T03:47:40;13.30;99.90
33139;DHT22;19501;50.948;5.316;2022-07-10T03:50:06;13.20;99.90
33139;DHT22;19501;50.948;5.316;2022-07-10T03:52:32;13.00;99.90
33139;DHT22;19501;50.948;5.316;2022-07-10T03:54:57;12.90;99.90
33139;DHT22;19501;50.948;5.316;2022-07-10T03:57:23;12.90;99.90
33139;DHT22;19501;50.948;5.316;2022-07-10T04:00:08;12.80;99.90
33139;DHT22;19501;50.948;5.316;2022-07-10T04:02:34;12.50;99.90
33139;DHT22;19501;50.948;5.316;2022-07-10T04:04:59;12.40;99.90
33139;DHT22;19501;50.948;5.316;2022-07-10T04:07:25;12.40;99.90
33139;DHT22;19501;50.948;5.316;2022-07-10T04:09:50;12.40;99.90
33139;DHT22;19501;50.948;5.316;2022-07-10T04:12:16;12.40;99.90
33139;DHT22;19501;50.948;5.316;2022-07-10T04:14:42;12.50;99.90
33139;DHT22;19501;50.948;5.316;2022-07-10T04:17:08;12.60;99.90
33139;DHT22;19501;50.948;5.316;2022-07-10T04:19:34;12.70;99.90
33139;DHT22;19501;50.948;5.316;2022-07-10T04:22:00;13.00;99.90
33139;DHT22;19501;50.948;5.316;2022-07-10T04:24:25;13.10;99.90
33139;DHT22;19501;50.948;5.316;2022-07-10T04:26:51;13.10;99.90
33139;DHT22;19501;50.948;5.316;2022-07-10T04:29:17;12.90;99.90
33139;DHT22;19501;50.948;5.316;2022-07-10T04:31:43;12.80;99.90
33139;DHT22;19501;50.948;5.316;2022-07-10T04:34:08;12.80;99.90
33139;DHT22;19501;50.948;5.316;2022-07-10T04:36:34;12.90;99.90
33139;DHT22;19501;50.948;5.316;2022-07-10T04:39:00;12.90;99.90
33139;DHT22;19501;50.948;5.316;2022-07-10T04:41:25;12.70;99.90
33139;DHT22;19501;50.948;5.316;2022-07-10T04:43:51;12.70;99.90
33139;DHT22;19501;50.948;5.316;2022-07-10T04:46:16;12.60;99.90
33139;DHT22;19501;50.948;5.316;2022-07-10T04:48:42;12.50;99.90
33139;DHT22;19501;50.948;5.316;2022-07-10T04:51:08;12.70;99.90
33139;DHT22;19501;50.948;5.316;2022-07-10T04:53:34;12.60;99.90
33139;DHT22;19501;50.948;5.316;2022-07-10T04:55:59;12.60;99.90
33139;DHT22;19501;50.948;5.316;2022-07-10T04:58:25;12.70;99.90
33139;DHT22;19501;50.948;5.316;2022-07-10T05:00:51;12.90;99.90
33139;DHT22;19501;50.948;5.316;2022-07-10T05:03:16;13.00;99.90
33139;DHT22;19501;50.948;5.316;2022-07-10T05:05:42;13.00;99.90
33139;DHT22;19501;50.948;5.316;2022-07-10T05:08:09;13.10;99.90
33139;DHT22;19501;50.948;5.316;2022-07-10T05:10:37;13.20;99.90
33139;DHT22;19501;50.948;5.316;2022-07-10T05:13:05;13.10;99.90
33139;DHT22;19501;50.948;5.316;2022-07-10T05:15:31;13.30;99.90
33139;DHT22;19501;50.948;5.316;2022-07-10T05:17:57;13.50;99.90
33139;DHT22;19501;50.948;5.316;2022-07-10T05:20:23;13.60;99.90
33139;DHT22;19501;50.948;5.316;2022-07-10T05:22:48;13.80;99.90
33139;DHT22;19501;50.948;5.316;2022-07-10T05:25:14;13.70;99.90
33139;DHT22;19501;50.948;5.316;2022-07-10T05:27:40;13.80;99.90
33139;DHT22;19501;50.948;5.316;2022-07-10T05:30:06;13.90;99.90
33139;DHT22;19501;50.948;5.316;2022-07-10T05:32:32;13.90;99.90
33139;DHT22;19501;50.948;5.316;2022-07-10T05:34:58;13.90;99.90
33139;DHT22;19501;50.948;5.316;2022-07-10T05:37:24;13.90;99.90
33139;DHT22;19501;50.948;5.316;2022-07-10T05:39:49;14.10;99.90
33139;DHT22;19501;50.948;5.316;2022-07-10T05:42:15;14.30;99.90
33139;DHT22;19501;50.948;5.316;2022-07-10T05:44:41;14.10;99.90
33139;DHT22;19501;50.948;5.316;2022-07-10T05:47:08;14.20;99.90
33139;DHT22;19501;50.948;5.316;2022-07-10T05:49:34;14.20;99.90
33139;DHT22;19501;50.948;5.316;2022-07-10T05:52:00;14.30;99.90
33139;DHT22;19501;50.948;5.316;2022-07-10T05:54:25;14.60;99.90
33139;DHT22;19501;50.948;5.316;2022-07-10T05:56:52;14.70;99.90
33139;DHT22;19501;50.948;5.316;2022-07-10T05:59:20;14.80;99.90
33139;DHT22;19501;50.948;5.316;2022-07-10T06:01:45;14.90;99.90
33139;DHT22;19501;50.948;5.316;2022-07-10T06:04:11;14.70;99.90
33139;DHT22;19501;50.948;5.316;2022-07-10T06:06:36;14.80;99.90
33139;DHT22;19501;50.948;5.316;2022-07-10T06:09:05;15.20;99.90
33139;DHT22;19501;50.948;5.316;2022-07-10T06:11:31;15.30;99.90
33139;DHT22;19501;50.948;5.316;2022-07-10T06:13:57;15.40;99.90
33139;DHT22;19501;50.948;5.316;2022-07-10T06:16:23;15.50;99.90
33139;DHT22;19501;50.948;5.316;2022-07-10T06:18:49;15.40;99.90
33139;DHT22;19501;50.948;5.316;2022-07-10T06:21:15;15.20;99.90
33139;DHT22;19501;50.948;5.316;2022-07-10T06:23:40;15.30;99.90
33139;DHT22;19501;50.948;5.316;2022-07-10T06:26:06;15.30;99.90
33139;DHT22;19501;50.948;5.316;2022-07-10T06:28:34;15.20;99.90
33139;DHT22;19501;50.948;5.316;2022-07-10T06:31:00;15.20;99.90
33139;DHT22;19501;50.948;5.316;2022-07-10T06:33:28;15.30;99.90
33139;DHT22;19501;50.948;5.316;2022-07-10T06:35:54;15.30;99.90
33139;DHT22;19501;50.948;5.316;2022-07-10T06:38:19;15.40;99.90
33139;DHT22;19501;50.948;5.316;2022-07-10T06:40:45;15.40;99.90
33139;DHT22;19501;50.948;5.316;2022-07-10T06:43:13;15.50;99.90
33139;DHT22;19501;50.948;5.316;2022-07-10T06:45:39;15.70;99.90
33139;DHT22;19501;50.948;5.316;2022-07-10T06:48:05;15.80;99.90
33139;DHT22;19501;50.948;5.316;2022-07-10T06:50:31;15.80;99.90
33139;DHT22;19501;50.948;5.316;2022-07-10T06:52:58;15.90;99.90
33139;DHT22;19501;50.948;5.316;2022-07-10T06:55:25;16.00;99.90
33139;DHT22;19501;50.948;5.316;2022-07-10T06:57:51;16.20;99.90
33139;DHT22;19501;50.948;5.316;2022-07-10T07:00:17;16.40;99.90
33139;DHT22;19501;50.948;5.316;2022-07-10T07:02:42;16.40;99.90
33139;DHT22;19501;50.948;5.316;2022-07-10T07:05:08;16.40;99.90
33139;DHT22;19501;50.948;5.316;2022-07-10T07:07:36;16.50;99.90
33139;DHT22;19501;50.948;5.316;2022-07-10T07:10:03;16.60;99.90
33139;DHT22;19501;50.948;5.316;2022-07-10T07:12:31;16.70;99.90
33139;DHT22;19501;50.948;5.316;2022-07-10T07:14:57;16.90;99.90
33139;DHT22;19501;50.948;5.316;2022-07-10T07:17:23;17.10;99.90
33139;DHT22;19501;50.948;5.316;2022-07-10T07:19:51;17.20;99.90
33139;DHT22;19501;50.948;5.316;2022-07-10T07:22:36;17.40;99.90
33139;DHT22;19501;50.948;5.316;2022-07-10T07:25:21;17.40;99.90
33139;DHT22;19501;50.948;5.316;2022-07-10T07:27:47;17.50;99.90
33139;DHT22;19501;50.948;5.316;2022-07-10T07:30:14;17.50;99.90
33139;DHT22;19501;50.948;5.316;2022-07-10T07:32:42;17.50;99.90
33139;DHT22;19501;50.948;5.316;2022-07-10T07:35:09;17.40;99.90
33139;DHT22;19501;50.948;5.316;2022-07-10T07:37:50;17.60;99.90
33139;DHT22;19501;50.948;5.316;2022-07-10T07:40:21;17.50;99.90
33139;DHT22;19501;50.948;5.316;2022-07-10T07:42:52;17.70;99.90
33139;DHT22;19501;50.948;5.316;2022-07-10T07:45:19;17.80;99.90
33139;DHT22;19501;50.948;5.316;2022-07-10T07:47:46;17.80;99.90
33139;DHT22;19501;50.948;5.316;2022-07-10T07:50:14;17.70;99.90
33139;DHT22;19501;50.948;5.316;2022-07-10T07:52:40;17.90;99.90
33139;DHT22;19501;50.948;5.316;2022-07-10T07:55:06;17.90;99.90
33139;DHT22;19501;50.948;5.316;2022-07-10T07:57:32;18.10;99.90
33139;DHT22;19501;50.948;5.316;2022-07-10T07:59:57;18.20;99.90
33139;DHT22;19501;50.948;5.316;2022-07-10T08:02:23;18.50;99.90
33139;DHT22;19501;50.948;5.316;2022-07-10T08:04:49;18.80;99.90
33139;DHT22;19501;50.948;5.316;2022-07-10T08:07:15;18.90;99.90
33139;DHT22;19501;50.948;5.316;2022-07-10T08:09:40;19.10;99.90
33139;DHT22;19501;50.948;5.316;2022-07-10T08:12:06;19.00;99.90
33139;DHT22;19501;50.948;5.316;2022-07-10T08:14:32;18.80;99.90
33139;DHT22;19501;50.948;5.316;2022-07-10T08:16:58;18.60;99.90
33139;DHT22;19501;50.948;5.316;2022-07-10T08:19:25;18.80;99.90
33139;DHT22;19501;50.948;5.316;2022-07-10T08:21:50;19.10;99.90
33139;DHT22;19501;50.948;5.316;2022-07-10T08:24:16;19.30;99.90
33139;DHT22;19501;50.948;5.316;2022-07-10T08:26:42;19.70;99.90
33139;DHT22;19501;50.948;5.316;2022-07-10T08:29:08;20.30;99.90
33139;DHT22;19501;50.948;5.316;2022-07-10T08:31:35;20.60;99.90
33139;DHT22;19501;50.948;5.316;2022-07-10T08:34:01;20.70;99.90
33139;DHT22;19501;50.948;5.316;2022-07-10T08:36:27;20.70;99.90
33139;DHT22;19501;50.948;5.316;2022-07-10T08:38:53;20.80;99.90
33139;DHT22;19501;50.948;5.316;2022-07-10T08:41:25;20.70;99.90
33139;DHT22;19501;50.948;5.316;2022-07-10T08:43:51;20.50;99.90
33139;DHT22;19501;50.948;5.316;2022-07-10T08:46:18;20.10;99.90
33139;DHT22;19501;50.948;5.316;2022-07-10T08:48:53;20.20;99.90
33139;DHT22;19501;50.948;5.316;2022-07-10T08:51:30;20.20;99.90
33139;DHT22;19501;50.948;5.316;2022-07-10T08:54:00;20.50;99.90
33139;DHT22;19501;50.948;5.316;2022-07-10T08:56:26;20.80;99.90
33139;DHT22;19501;50.948;5.316;2022-07-10T08:58:54;20.70;99.90
33139;DHT22;19501;50.948;5.316;2022-07-10T09:01:20;20.80;99.90
33139;DHT22;19501;50.948;5.316;2022-07-10T09:03:49;20.80;99.90
33139;DHT22;19501;50.948;5.316;2022-07-10T09:06:16;20.50;99.90
33139;DHT22;19501;50.948;5.316;2022-07-10T09:08:59;20.60;99.90
33139;DHT22;19501;50.948;5.316;2022-07-10T09:11:24;20.10;99.90
33139;DHT22;19501;50.948;5.316;2022-07-10T09:13:56;20.40;99.90
33139;DHT22;19501;50.948;5.316;2022-07-10T09:16:26;20.50;99.90
33139;DHT22;19501;50.948;5.316;2022-07-10T09:18:53;20.60;99.90
33139;DHT22;19501;50.948;5.316;2022-07-10T09:21:19;20.50;99.90
33139;DHT22;19501;50.948;5.316;2022-07-10T09:23:45;20.30;99.90
33139;DHT22;19501;50.948;5.316;2022-07-10T09:26:11;20.50;99.90
33139;DHT22;19501;50.948;5.316;2022-07-10T09:28:38;20.80;99.90
33139;DHT22;19501;50.948;5.316;2022-07-10T09:31:04;21.00;99.90
33139;DHT22;19501;50.948;5.316;2022-07-10T09:33:31;21.20;99.90
33139;DHT22;19501;50.948;5.316;2022-07-10T09:35:59;21.10;99.90
33139;DHT22;19501;50.948;5.316;2022-07-10T09:41:12;21.30;99.90
33139;DHT22;19501;50.948;5.316;2022-07-10T09:43:45;21.20;99.90
33139;DHT22;19501;50.948;5.316;2022-07-10T09:46:11;21.10;99.90
33139;DHT22;19501;50.948;5.316;2022-07-10T09:48:37;20.70;99.90
33139;DHT22;19501;50.948;5.316;2022-07-10T09:51:05;20.00;99.90
33139;DHT22;19501;50.948;5.316;2022-07-10T09:53:32;20.00;99.90
33139;DHT22;19501;50.948;5.316;2022-07-10T09:56:01;19.90;99.90
33139;DHT22;19501;50.948;5.316;2022-07-10T09:58:29;20.00;99.90
33139;DHT22;19501;50.948;5.316;2022-07-10T10:00:58;20.20;99.90
33139;DHT22;19501;50.948;5.316;2022-07-10T10:03:26;20.40;99.90
33139;DHT22;19501;50.948;5.316;2022-07-10T10:06:01;20.70;99.90
33139;DHT22;19501;50.948;5.316;2022-07-10T10:08:29;20.60;99.90
33139;DHT22;19501;50.948;5.316;2022-07-10T10:10:57;20.80;99.90
33139;DHT22;19501;50.948;5.316;2022-07-10T10:13:26;20.90;99.90
33139;DHT22;19501;50.948;5.316;2022-07-10T10:15:59;20.60;99.90
33139;DHT22;19501;50.948;5.316;2022-07-10T10:18:26;20.70;99.90
33139;DHT22;19501;50.948;5.316;2022-07-10T10:20:55;20.90;99.90
33139;DHT22;19501;50.948;5.316;2022-07-10T10:23:23;21.10;99.90
33139;DHT22;19501;50.948;5.316;2022-07-10T10:25:51;21.20;99.90
33139;DHT22;19501;50.948;5.316;2022-07-10T10:28:19;21.00;99.90
33139;DHT22;19501;50.948;5.316;2022-07-10T10:31:02;21.00;99.90
33139;DHT22;19501;50.948;5.316;2022-07-10T10:36:07;21.00;99.90
33139;DHT22;19501;50.948;5.316;2022-07-10T10:41:30;21.20;99.90
33139;DHT22;19501;50.948;5.316;2022-07-10T10:46:35;20.80;99.90
33139;DHT22;19501;50.948;5.316;2022-07-10T10:49:08;20.30;99.90
33139;DHT22;19501;50.948;5.316;2022-07-10T10:54:21;20.50;99.90
33139;DHT22;19501;50.948;5.316;2022-07-10T10:57:13;20.80;99.90
33139;DHT22;19501;50.948;5.316;2022-07-10T11:07:58;20.80;99.90
33139;DHT22;19501;50.948;5.316;2022-07-10T11:10:31;20.30;99.90
33139;DHT22;19501;50.948;5.316;2022-07-10T11:13:08;20.10;99.90
33139;DHT22;19501;50.948;5.316;2022-07-10T11:15:48;20.20;99.90
33139;DHT22;19501;50.948;5.316;2022-07-10T11:18:16;20.30;99.90
33139;DHT22;19501;50.948;5.316;2022-07-10T11:20:47;20.50;99.90
33139;DHT22;19501;50.948;5.316;2022-07-10T11:29:09;21.20;99.90
33139;DHT22;19501;50.948;5.316;2022-07-10T11:31:35;21.20;99.90
33139;DHT22;19501;50.948;5.316;2022-07-10T11:34:05;21.20;99.90
33139;DHT22;19501;50.948;5.316;2022-07-10T11:36:31;21.00;99.90
33139;DHT22;19501;50.948;5.316;2022-07-10T11:39:05;20.80;99.90
33139;DHT22;19501;50.948;5.316;2022-07-10T11:41:32;21.20;99.90
33139;DHT22;19501;50.948;5.316;2022-07-10T11:43:59;21.10;99.90
33139;DHT22;19501;50.948;5.316;2022-07-10T11:46:33;21.20;99.90
33139;DHT22;19501;50.948;5.316;2022-07-10T11:49:02;21.00;99.90
33139;DHT22;19501;50.948;5.316;2022-07-10T11:51:32;21.30;99.90
33139;DHT22;19501;50.948;5.316;2022-07-10T11:56:26;22.90;99.90
33139;DHT22;19501;50.948;5.316;2022-07-10T11:59:06;23.10;99.90
33139;DHT22;19501;50.948;5.316;2022-07-10T12:01:43;23.00;99.90
33139;DHT22;19501;50.948;5.316;2022-07-10T12:04:13;22.80;99.90
33139;DHT22;19501;50.948;5.316;2022-07-10T12:06:45;23.20;99.90
33139;DHT22;19501;50.948;5.316;2022-07-10T12:09:17;23.70;99.90
33139;DHT22;19501;50.948;5.316;2022-07-10T12:11:44;23.60;99.10
33139;DHT22;19501;50.948;5.316;2022-07-10T12:14:20;23.40;99.80
33139;DHT22;19501;50.948;5.316;2022-07-10T12:16:52;23.40;98.90
33139;DHT22;19501;50.948;5.316;2022-07-10T12:21:52;23.00;99.90
33139;DHT22;19501;50.948;5.316;2022-07-10T12:24:19;23.50;99.40
33139;DHT22;19501;50.948;5.316;2022-07-10T12:26:50;23.80;98.60
33139;DHT22;19501;50.948;5.316;2022-07-10T12:31:54;24.40;97.90
33139;DHT22;19501;50.948;5.316;2022-07-10T12:34:42;23.20;98.00
33139;DHT22;19501;50.948;5.316;2022-07-10T12:37:12;22.80;99.20
33139;DHT22;19501;50.948;5.316;2022-07-10T12:39:47;23.30;99.90
33139;DHT22;19501;50.948;5.316;2022-07-10T12:42:13;23.90;99.20
33139;DHT22;19501;50.948;5.316;2022-07-10T12:44:41;24.90;98.10
33139;DHT22;19501;50.948;5.316;2022-07-10T12:47:12;25.00;97.70
33139;DHT22;19501;50.948;5.316;2022-07-10T12:50:03;24.60;97.80
33139;DHT22;19501;50.948;5.316;2022-07-10T12:52:36;24.30;97.50
33139;DHT22;19501;50.948;5.316;2022-07-10T12:55:11;23.70;98.00
33139;DHT22;19501;50.948;5.316;2022-07-10T12:57:50;23.80;98.40
33139;DHT22;19501;50.948;5.316;2022-07-10T13:00:19;25.10;97.90
33139;DHT22;19501;50.948;5.316;2022-07-10T13:02:46;24.90;96.30
33139;DHT22;19501;50.948;5.316;2022-07-10T13:05:35;24.10;97.30
33139;DHT22;19501;50.948;5.316;2022-07-10T13:08:18;24.00;97.90
33139;DHT22;19501;50.948;5.316;2022-07-10T13:10:55;24.90;96.70
33139;DHT22;19501;50.948;5.316;2022-07-10T13:13:22;24.80;96.60
33139;DHT22;19501;50.948;5.316;2022-07-10T13:15:50;25.20;96.00
33139;DHT22;19501;50.948;5.316;2022-07-10T13:18:20;25.00;96.20
33139;DHT22;19501;50.948;5.316;2022-07-10T13:20:48;25.00;96.70
33139;DHT22;19501;50.948;5.316;2022-07-10T13:23:14;24.70;96.20
33139;DHT22;19501;50.948;5.316;2022-07-10T13:25:41;24.80;95.90
33139;DHT22;19501;50.948;5.316;2022-07-10T13:28:09;24.60;96.60
33139;DHT22;19501;50.948;5.316;2022-07-10T13:30:35;24.40;96.70
33139;DHT22;19501;50.948;5.316;2022-07-10T13:33:01;24.30;97.20
33139;DHT22;19501;50.948;5.316;2022-07-10T13:35:28;24.50;96.40
33139;DHT22;19501;50.948;5.316;2022-07-10T13:37:55;24.60;96.60
33139;DHT22;19501;50.948;5.316;2022-07-10T13:40:21;24.10;97.10
33139;DHT22;19501;50.948;5.316;2022-07-10T13:42:47;23.80;97.30
33139;DHT22;19501;50.948;5.316;2022-07-10T13:45:12;23.70;97.80
33139;DHT22;19501;50.948;5.316;2022-07-10T13:47:38;23.50;97.20
33139;DHT22;19501;50.948;5.316;2022-07-10T13:50:04;23.70;97.60
33139;DHT22;19501;50.948;5.316;2022-07-10T13:52:31;23.70;97.30
33139;DHT22;19501;50.948;5.316;2022-07-10T13:54:56;24.20;97.10
33139;DHT22;19501;50.948;5.316;2022-07-10T13:57:23;24.70;96.90
33139;DHT22;19501;50.948;5.316;2022-07-10T13:59:49;24.90;96.60
33139;DHT22;19501;50.948;5.316;2022-07-10T14:02:14;24.60;97.00
33139;DHT22;19501;50.948;5.316;2022-07-10T14:04:40;24.30;97.60
33139;DHT22;19501;50.948;5.316;2022-07-10T14:07:06;24.70;97.60
33139;DHT22;19501;50.948;5.316;2022-07-10T14:09:32;24.80;96.50
33139;DHT22;19501;50.948;5.316;2022-07-10T14:11:57;25.20;96.20
33139;DHT22;19501;50.948;5.316;2022-07-10T14:14:23;25.40;95.60
33139;DHT22;19501;50.948;5.316;2022-07-10T14:16:52;25.70;95.60
33139;DHT22;19501;50.948;5.316;2022-07-10T14:19:17;25.50;95.30
33139;DHT22;19501;50.948;5.316;2022-07-10T14:21:43;25.80;95.50
33139;DHT22;19501;50.948;5.316;2022-07-10T14:24:10;26.30;95.30
33139;DHT22;19501;50.948;5.316;2022-07-10T14:26:36;26.40;95.70
33139;DHT22;19501;50.948;5.316;2022-07-10T14:29:03;27.10;94.60
33139;DHT22;19501;50.948;5.316;2022-07-10T14:31:29;27.00;94.50
33139;DHT22;19501;50.948;5.316;2022-07-10T14:33:55;27.30;93.70
33139;DHT22;19501;50.948;5.316;2022-07-10T14:36:21;26.70;94.10
33139;DHT22;19501;50.948;5.316;2022-07-10T14:38:55;25.90;93.70
33139;DHT22;19501;50.948;5.316;2022-07-10T14:41:22;25.80;95.10
33139;DHT22;19501;50.948;5.316;2022-07-10T14:43:51;25.90;95.40
33139;DHT22;19501;50.948;5.316;2022-07-10T14:46:23;26.30;94.60
33139;DHT22;19501;50.948;5.316;2022-07-10T14:48:50;26.80;94.40
33139;DHT22;19501;50.948;5.316;2022-07-10T14:51:15;27.00;93.40
33139;DHT22;19501;50.948;5.316;2022-07-10T14:53:42;26.50;94.00
33139;DHT22;19501;50.948;5.316;2022-07-10T14:56:13;25.30;94.60
33139;DHT22;19501;50.948;5.316;2022-07-10T14:58:41;24.90;95.00
33139;DHT22;19501;50.948;5.316;2022-07-10T15:01:08;25.40;95.60
33139;DHT22;19501;50.948;5.316;2022-07-10T15:03:33;25.80;94.90
33139;DHT22;19501;50.948;5.316;2022-07-10T15:05:59;26.10;95.50
33139;DHT22;19501;50.948;5.316;2022-07-10T15:08:25;25.90;94.00
33139;DHT22;19501;50.948;5.316;2022-07-10T15:10:51;25.20;95.30
33139;DHT22;19501;50.948;5.316;2022-07-10T15:13:17;24.90;95.40
33139;DHT22;19501;50.948;5.316;2022-07-10T15:15:43;24.80;95.80
33139;DHT22;19501;50.948;5.316;2022-07-10T15:18:09;24.60;95.60
33139;DHT22;19501;50.948;5.316;2022-07-10T15:20:36;24.20;96.50
33139;DHT22;19501;50.948;5.316;2022-07-10T15:23:03;24.30;97.00
33139;DHT22;19501;50.948;5.316;2022-07-10T15:25:29;24.30;96.40
33139;DHT22;19501;50.948;5.316;2022-07-10T15:27:54;23.80;96.50
33139;DHT22;19501;50.948;5.316;2022-07-10T15:30:20;23.80;97.00
33139;DHT22;19501;50.948;5.316;2022-07-10T15:32:46;24.00;97.50
33139;DHT22;19501;50.948;5.316;2022-07-10T15:35:13;24.60;96.80
33139;DHT22;19501;50.948;5.316;2022-07-10T15:37:40;24.90;95.80
33139;DHT22;19501;50.948;5.316;2022-07-10T15:40:06;24.90;95.40
33139;DHT22;19501;50.948;5.316;2022-07-10T15:42:32;24.50;96.20
33139;DHT22;19501;50.948;5.316;2022-07-10T15:44:58;24.20;96.20
33139;DHT22;19501;50.948;5.316;2022-07-10T15:47:24;24.10;96.50
33139;DHT22;19501;50.948;5.316;2022-07-10T15:49:50;24.40;96.50
33139;DHT22;19501;50.948;5.316;2022-07-10T15:52:16;25.00;95.90
33139;DHT22;19501;50.948;5.316;2022-07-10T15:54:42;25.20;95.30
33139;DHT22;19501;50.948;5.316;2022-07-10T15:57:09;25.30;95.50
33139;DHT22;19501;50.948;5.316;2022-07-10T15:59:37;25.10;95.70
33139;DHT22;19501;50.948;5.316;2022-07-10T16:02:03;24.90;95.50
33139;DHT22;19501;50.948;5.316;2022-07-10T16:04:29;24.70;95.60
33139;DHT22;19501;50.948;5.316;2022-07-10T16:06:54;24.40;96.50
33139;DHT22;19501;50.948;5.316;2022-07-10T16:09:20;24.00;96.70